Time;durP1;ratioP1;P1;durP2;ratioP2;P2;SDS_P1;SDS_P2;PMS_P1;PMS_P2;Temp;Humidity;BMP_temperature;BMP_pressure;BME280_temperature;BME280_humidity;BME280_pressure;Samples;Min_cycle;Max_cycle;Signal;HPM_P1;HPM_P2
2022/08/12 00:43:59;;;;;;;;;19.00;13.00;;;;;28.18;29.19;101250.53;5063777;28;45457;-79
2022/08/12 00:46:38;;;;;;;;;14.67;14.00;;;;;28.14;29.04;101251.88;5056615;28;45456;-79
2022/08/12 00:49:06;;;;;;;;;13.00;12.00;;;;;28.11;29.74;101244.88;5056004;28;47044;-79
2022/08/12 00:54:17;;;;;;;;;14.67;14.67;;;;;28.03;29.63;101244.03;5056708;28;45562;-78
2022/08/12 00:56:43;;;;;;;;;16.33;16.00;;;;;28.00;29.58;101247.94;5038515;28;45616;-79
2022/08/12 00:59:09;;;;;;;;;15.67;15.67;;;;;27.96;29.81;101244.69;5055878;28;46136;-79
2022/08/12 01:01:36;;;;;;;;;18.33;15.67;;;;;27.95;29.87;101242.94;5056108;28;46150;-78
2022/08/12 01:12:32;;;;;;;;;16.33;16.33;;;;;27.76;29.69;101221.31;5033409;28;45445;-79
2022/08/12 01:15:00;;;;;;;;;13.00;12.00;;;;;27.83;29.62;101240.69;5033403;28;45471;-79
2022/08/12 01:17:25;;;;;;;;;11.67;11.67;;;;;27.71;30.20;101226.44;5033211;28;45556;-79
2022/08/12 01:19:54;;;;;;;;;16.67;15.33;;;;;27.73;30.17;101243.56;5045115;28;47186;-79
2022/08/12 01:22:41;;;;;;;;;15.33;15.33;;;;;27.68;30.06;101241.34;5053561;28;45394;-79
2022/08/12 01:25:15;;;;;;;;;16.33;15.00;;;;;27.63;29.96;101240.09;5053501;28;45437;-79
2022/08/12 01:27:41;;;;;;;;;14.00;14.00;;;;;27.48;30.16;101227.06;5053512;28;45518;-78
2022/08/12 01:30:11;;;;;;;;;11.67;11.33;;;;;27.46;30.28;101230.97;5052919;28;46371;-79
2022/08/12 01:32:39;;;;;;;;;12.33;12.33;;;;;27.52;30.17;101244.03;5036214;28;45614;-79
2022/08/12 01:35:09;;;;;;;;;13.00;10.00;;;;;27.51;30.10;101239.56;5053165;28;45541;-79
2022/08/12 01:37:45;;;;;;;;;13.00;12.00;;;;;27.43;30.64;101228.59;5053556;28;45548;-78
2022/08/12 01:40:11;;;;;;;;;14.67;14.67;;;;;27.47;30.19;101229.97;5056057;28;46210;-78
2022/08/12 01:42:58;;;;;;;;;12.00;12.00;;;;;27.48;30.57;101235.28;5073335;28;45482;-78
2022/08/12 01:45:28;;;;;;;;;13.00;11.33;;;;;27.47;30.18;101236.31;5075547;28;45471;-78
2022/08/12 01:48:02;;;;;;;;;11.00;10.00;;;;;27.42;30.59;101235.94;5075872;27;45474;-78
2022/08/12 01:50:43;;;;;;;;;14.67;12.33;;;;;27.41;29.87;101236.94;5075411;27;47225;-78
2022/08/12 01:53:14;;;;;;;;;14.67;11.67;;;;;27.38;30.33;101236.44;5075180;28;45380;-78
2022/08/12 01:55:46;;;;;;;;;14.00;14.00;;;;;27.22;30.54;101213.44;5076510;27;45514;-79
2022/08/12 01:58:21;;;;;;;;;16.00;13.33;;;;;27.34;30.19;101227.69;5079233;28;45569;-78
2022/08/12 02:00:57;;;;;;;;;12.67;10.00;;;;;27.31;30.62;101228.88;5078549;28;46655;-78
2022/08/12 02:13:27;;;;;;;;;15.00;14.00;;;;;27.16;30.15;101223.16;5078683;28;45467;-78
2022/08/12 02:16:01;;;;;;;;;11.00;11.00;;;;;27.14;30.95;101230.66;5035484;28;45511;-78
2022/08/12 02:19:09;;;;;;;;;16.33;12.33;;;;;27.10;30.92;101221.06;5035741;28;45462;-79
2022/08/12 02:21:54;;;;;;;;;11.67;10.67;;;;;27.01;30.87;101207.50;5036351;28;45522;-79
2022/08/12 02:24:22;;;;;;;;;15.67;12.67;;;;;27.01;30.96;101204.75;5035654;28;47288;-78
2022/08/12 02:26:49;;;;;;;;;13.33;12.67;;;;;26.98;30.57;101196.91;5035740;28;45480;-79
2022/08/12 02:29:15;;;;;;;;;12.33;12.33;;;;;27.04;30.71;101218.09;5035557;28;45536;-78
2022/08/12 02:31:44;;;;;;;;;15.33;12.33;;;;;27.02;30.81;101212.81;5035912;28;45438;-78
2022/08/12 02:34:11;;;;;;;;;10.67;10.67;;;;;26.99;30.88;101207.66;5035506;28;46398;-78
2022/08/12 02:36:38;;;;;;;;;16.50;12.50;;;;;26.96;31.28;101210.72;5018777;28;45511;-78
2022/08/12 02:39:06;;;;;;;;;14.67;14.67;;;;;26.92;31.32;101220.28;5035707;28;45761;-78
2022/08/12 02:41:38;;;;;;;;;11.33;11.33;;;;;26.89;31.05;101220.59;5035976;28;45411;-78
2022/08/12 02:44:07;;;;;;;;;12.00;12.00;;;;;26.86;30.96;101213.59;5034615;28;46261;-78
2022/08/12 02:46:34;;;;;;;;;11.67;11.67;;;;;26.84;31.61;101212.88;5035599;28;45561;-78
2022/08/12 02:49:08;;;;;;;;;13.33;13.33;;;;;26.81;31.56;101215.94;5035866;28;45553;-78
2022/08/12 02:51:39;;;;;;;;;13.00;12.67;;;;;26.79;31.21;101214.41;5060318;28;45716;-78
2022/08/12 02:54:06;;;;;;;;;13.00;11.33;;;;;26.75;31.86;101213.84;5077863;27;46212;-78
2022/08/12 02:56:39;;;;;;;;;13.67;13.33;;;;;26.72;31.46;101219.66;5078165;27;45483;-78
2022/08/12 02:59:10;;;;;;;;;11.00;11.00;;;;;26.72;31.39;101219.66;5078102;27;45444;-78
2022/08/12 03:01:42;;;;;;;;;13.00;12.00;;;;;26.64;31.44;101205.91;5078829;27;45666;-78
2022/08/12 03:04:12;;;;;;;;;13.67;11.33;;;;;26.67;32.16;101214.66;5077991;28;47398;-78
2022/08/12 03:06:42;;;;;;;;;12.33;12.33;;;;;26.64;32.20;101217.69;5077599;28;45503;-78
2022/08/12 03:09:13;;;;;;;;;12.00;12.00;;;;;26.60;32.38;101219.06;5078130;28;45390;-78
2022/08/12 03:11:44;;;;;;;;;13.33;12.00;;;;;26.60;31.70;101215.44;5077043;28;45537;-78
2022/08/12 03:14:13;;;;;;;;;11.00;11.00;;;;;26.55;32.34;101215.94;5077537;27;47290;-78
2022/08/12 03:16:40;;;;;;;;;14.00;13.00;;;;;26.54;31.78;101211.50;5076406;28;45571;-78
2022/08/12 03:19:06;;;;;;;;;10.00;10.00;;;;;26.45;32.20;101210.53;5077997;28;45439;-78
2022/08/12 03:21:36;;;;;;;;;14.00;13.00;;;;;26.41;31.82;101219.19;5078135;28;45469;-79
2022/08/12 03:24:03;;;;;;;;;12.33;12.00;;;;;26.43;32.64;101218.03;5077584;27;47390;-78
2022/08/12 03:26:33;;;;;;;;;13.67;10.67;;;;;26.30;31.89;101212.13;5077474;27;45593;-78
2022/08/12 03:29:03;;;;;;;;;13.33;11.67;;;;;26.38;32.57;101225.00;5077764;27;45507;-78
2022/08/12 03:31:31;;;;;;;;;12.33;11.33;;;;;26.31;32.76;101225.63;5078104;27;45776;-78
2022/08/12 03:34:00;;;;;;;;;15.67;14.67;;;;;26.29;32.20;101227.69;5077331;27;45563;-78
2022/08/12 03:36:27;;;;;;;;;10.33;9.67;;;;;26.28;32.19;101236.88;5077191;27;45460;-78
2022/08/12 03:42:02;;;;;;;;;9.00;9.00;;;;;26.21;32.54;101227.59;5078117;28;45413;-79
2022/08/12 04:01:15;;;;;;;;;10.00;9.00;;;;;26.09;32.27;101216.06;5077124;28;45445;-79
2022/08/12 04:03:52;;;;;;;;;11.00;11.00;;;;;26.07;32.71;101222.69;5077475;27;45449;-79
2022/08/12 04:06:22;;;;;;;;;14.00;10.00;;;;;25.96;32.24;101209.25;5076929;28;46077;-78
2022/08/12 04:08:50;;;;;;;;;10.33;9.33;;;;;25.99;32.79;101217.13;5076989;27;45504;-78
2022/08/12 04:14:13;;;;;;;;;12.00;10.33;;;;;25.93;33.04;101220.50;5077359;28;45403;-78
2022/08/12 04:16:39;;;;;;;;;11.00;10.67;;;;;25.90;32.78;101208.03;5092345;27;46239;-78
2022/08/12 04:19:06;;;;;;;;;13.67;12.67;;;;;25.88;32.90;101213.63;5075992;27;45488;-79
2022/08/12 04:21:32;;;;;;;;;13.67;12.00;;;;;25.85;32.92;101216.66;5077023;27;45405;-79
2022/08/12 04:23:59;;;;;;;;;10.33;10.33;;;;;25.85;33.08;101215.81;5076927;28;45373;-79
2022/08/12 04:26:26;;;;;;;;;11.00;11.00;;;;;25.77;33.57;101207.50;5076598;27;45685;-79
2022/08/12 04:28:51;;;;;;;;;12.00;12.00;;;;;25.79;33.54;101220.00;5076802;28;45728;-78
2022/08/12 04:31:17;;;;;;;;;11.00;11.00;;;;;25.69;33.48;101198.22;5076757;27;45572;-78
2022/08/12 04:33:42;;;;;;;;;11.67;11.67;;;;;25.75;33.13;101213.13;5058873;28;45422;-78
2022/08/12 04:36:08;;;;;;;;;16.67;12.67;;;;;25.73;33.20;101206.97;5076503;28;46390;-78
2022/08/12 04:38:35;;;;;;;;;12.33;10.67;;;;;25.68;33.39;101217.47;5076660;28;45528;-78
2022/08/12 04:41:02;;;;;;;;;11.67;11.67;;;;;25.66;33.86;101222.22;5076508;28;45468;-78
2022/08/12 04:43:28;;;;;;;;;13.00;12.00;;;;;25.61;33.93;101219.09;5063968;28;45520;-78
2022/08/12 04:45:54;;;;;;;;;11.00;11.00;;;;;25.61;33.96;101219.97;5052628;28;46334;-78
2022/08/12 04:48:20;;;;;;;;;12.67;12.33;;;;;25.59;34.13;101211.09;5076521;28;45478;-78
2022/08/12 04:50:45;;;;;;;;;11.00;9.67;;;;;25.57;34.05;101210.38;5076379;28;45516;-78
2022/08/12 04:53:12;;;;;;;;;11.33;10.67;;;;;25.45;34.05;101207.00;5076605;28;45448;-79
2022/08/12 04:55:39;;;;;;;;;14.00;11.00;;;;;25.53;33.77;101219.88;5076051;28;47054;-78
2022/08/12 04:58:08;;;;;;;;;13.33;12.00;;;;;25.47;34.30;101213.19;5074924;28;45474;-79
2022/08/12 05:00:36;;;;;;;;;11.00;11.00;;;;;25.49;34.00;101213.84;5058895;28;45350;-79
2022/08/12 05:03:04;;;;;;;;;12.33;11.33;;;;;25.50;33.82;101222.94;5076689;28;45542;-78
2022/08/12 05:05:31;;;;;;;;;12.67;11.00;;;;;25.49;33.78;101226.66;5076303;28;46144;-78
2022/08/12 05:07:57;;;;;;;;;12.00;10.33;;;;;25.46;34.12;101222.34;5076424;28;45473;-78
2022/08/12 05:10:23;;;;;;;;;13.67;11.00;;;;;25.38;34.33;101214.09;5076205;28;45572;-78
2022/08/12 05:12:55;;;;;;;;;9.33;9.33;;;;;25.45;34.61;101226.13;5076605;28;45468;-79
2022/08/12 05:15:20;;;;;;;;;10.00;10.00;;;;;25.47;34.66;101223.22;5076270;28;46002;-78
2022/08/12 05:17:46;;;;;;;;;10.67;10.67;;;;;25.46;34.10;101230.53;5076125;28;45406;-78
2022/08/12 05:20:14;;;;;;;;;13.67;13.00;;;;;25.45;34.36;101222.50;5076198;28;45457;-78
2022/08/12 05:22:43;;;;;;;;;11.00;10.00;;;;;25.42;34.67;101220.94;5064348;28;45670;-78
2022/08/12 05:25:10;;;;;;;;;13.00;11.00;;;;;25.45;34.42;101225.22;5055555;28;46375;-79
2022/08/12 05:27:36;;;;;;;;;10.67;10.00;;;;;25.49;34.34;101238.41;5055610;28;45454;-78
2022/08/12 05:30:01;;;;;;;;;11.67;10.33;;;;;25.49;34.06;101245.75;5037782;28;45473;-78
2022/08/12 05:32:27;;;;;;;;;11.33;10.67;;;;;25.49;34.57;101235.69;5059452;28;45488;-78
2022/08/12 05:34:52;;;;;;;;;13.33;11.67;;;;;25.51;34.23;101242.88;5059130;28;46236;-78
2022/08/12 05:37:19;;;;;;;;;15.00;13.00;;;;;25.52;34.51;101230.94;5059045;28;45537;-78
2022/08/12 05:39:45;;;;;;;;;10.33;10.33;;;;;25.52;34.30;101230.94;5059394;28;45441;-78
2022/08/12 05:42:10;;;;;;;;;12.00;12.00;;;;;25.57;34.35;101236.81;5079162;28;45413;-79
2022/08/12 05:44:36;;;;;;;;;10.00;9.67;;;;;25.60;34.27;101233.78;5079166;27;46281;-79
2022/08/12 05:47:01;;;;;;;;;12.00;10.67;;;;;25.58;34.72;101238.53;5079009;28;45386;-78
2022/08/12 05:49:28;;;;;;;;;12.00;12.00;;;;;25.63;34.50;101247.13;5079504;28;45400;-78
2022/08/12 05:51:54;;;;;;;;;14.00;12.00;;;;;25.65;34.54;101245.09;5079197;27;45489;-78
2022/08/12 05:54:20;;;;;;;;;11.33;11.00;;;;;25.66;34.75;101246.81;5079207;28;45486;-80
2022/08/12 05:56:47;;;;;;;;;14.00;11.00;;;;;25.62;34.59;101242.69;5077776;28;45889;-80
2022/08/12 05:59:12;;;;;;;;;11.67;11.67;;;;;25.69;34.33;101243.78;5079235;28;45385;-79
2022/08/12 06:01:39;;;;;;;;;11.00;9.67;;;;;25.64;34.56;101237.94;5079268;27;45526;-79
2022/08/12 06:04:05;;;;;;;;;14.67;13.00;;;;;25.73;34.00;101250.66;5078808;28;47212;-79
2022/08/12 06:06:34;;;;;;;;;14.00;13.00;;;;;25.76;33.96;101242.16;5077284;28;45386;-79
2022/08/12 06:09:00;;;;;;;;;9.33;9.33;;;;;25.77;34.14;101240.28;5078994;27;45491;-79
2022/08/12 06:11:26;;;;;;;;;15.00;13.00;;;;;25.83;34.47;101240.53;5077821;28;45532;-79
2022/08/12 06:13:54;;;;;;;;;14.00;12.33;;;;;25.86;34.11;101242.09;5077460;28;45615;-79
2022/08/12 06:16:21;;;;;;;;;12.33;10.00;;;;;25.89;33.64;101242.69;5077562;28;45429;-79
2022/08/12 06:18:48;;;;;;;;;11.00;10.00;;;;;25.95;33.89;101246.66;5078944;28;45460;-79
2022/08/12 06:21:16;;;;;;;;;12.00;11.67;;;;;25.99;33.77;101247.19;5078083;28;45398;-79
2022/08/12 06:23:44;;;;;;;;;10.67;10.67;;;;;26.03;33.33;101243.13;5074124;28;47304;-79
2022/08/12 06:26:11;;;;;;;;;13.67;11.33;;;;;26.06;34.00;101249.16;5058884;28;45412;-79
2022/08/12 06:28:41;;;;;;;;;11.00;10.00;;;;;26.01;33.53;101228.75;5058820;28;45709;-79
2022/08/12 06:31:07;;;;;;;;;12.00;12.00;;;;;26.16;33.73;101251.81;5058447;28;45409;-79
2022/08/12 06:33:33;;;;;;;;;11.67;10.33;;;;;26.21;33.76;101249.47;5058206;28;45406;-79
2022/08/12 06:36:00;;;;;;;;;11.00;9.67;;;;;26.25;33.71;101245.41;5057963;28;45390;-79
2022/08/12 06:38:27;;;;;;;;;11.00;10.00;;;;;26.31;33.43;101246.63;5058415;28;45381;-79
2022/08/12 06:43:42;;;;;;;;;14.67;12.00;;;;;26.37;32.80;101237.81;5067418;28;45541;-79
2022/08/12 06:46:08;;;;;;;;;10.00;10.00;;;;;26.50;32.96;101245.59;5078215;27;45444;-79
2022/08/12 06:48:34;;;;;;;;;11.00;11.00;;;;;26.56;31.74;101247.72;5078526;28;45455;-79
2022/08/12 06:51:02;;;;;;;;;12.33;11.00;;;;;26.56;31.48;101236.78;5078609;27;45441;-79
2022/08/12 06:53:28;;;;;;;;;15.33;10.00;;;;;26.62;31.25;101240.75;5078119;27;47054;-79
2022/08/12 06:55:53;;;;;;;;;7.67;7.33;;;;;26.76;31.40;101250.25;5077932;27;45501;-80
2022/08/12 06:58:20;;;;;;;;;9.00;9.00;;;;;26.83;30.95;101248.59;5077057;28;45466;-79
2022/08/12 07:00:48;;;;;;;;;8.67;8.67;;;;;26.88;31.04;101243.53;5078723;28;45461;-79
2022/08/12 07:03:20;;;;;;;;;8.00;6.00;;;;;26.96;30.42;101243.56;5077875;27;47270;-79
2022/08/12 07:05:45;;;;;;;;;11.33;9.67;;;;;27.02;30.18;101237.44;5077755;27;45460;-80
2022/08/12 07:08:12;;;;;;;;;14.67;10.67;;;;;27.03;30.61;101241.88;5078139;27;45478;-80
2022/08/12 07:10:42;;;;;;;;;11.67;9.33;;;;;27.12;30.41;101246.38;5078256;27;45435;-79
2022/08/12 07:13:08;;;;;;;;;9.33;9.33;;;;;27.20;29.81;101244.75;5077980;27;46182;-79
2022/08/12 07:15:34;;;;;;;;;12.33;10.33;;;;;27.23;29.64;101227.97;5078014;27;45716;-79
2022/08/12 07:20:34;;;;;;;;;8.33;8.33;;;;;27.37;29.26;101221.91;5078024;27;45607;-79
2022/08/12 07:23:03;;;;;;;;;7.67;7.67;;;;;27.37;29.37;101216.44;5077851;27;45758;-80
2022/08/12 07:25:31;;;;;;;;;9.00;9.00;;;;;27.46;29.50;101218.16;5077665;28;45443;-80
2022/08/12 07:28:05;;;;;;;;;14.00;10.67;;;;;27.55;29.81;101219.03;5077764;28;45465;-79
2022/08/12 07:30:33;;;;;;;;;11.00;8.00;;;;;27.64;29.60;101220.78;5078162;28;45576;-79
2022/08/12 07:33:00;;;;;;;;;7.00;7.00;;;;;27.68;28.81;101222.16;5077600;27;46174;-80
2022/08/12 07:35:28;;;;;;;;;10.67;10.00;;;;;27.74;28.50;101215.16;5077461;27;45480;-80
2022/08/12 07:37:54;;;;;;;;;9.00;9.00;;;;;27.73;28.79;101219.78;5077593;27;45424;-80
2022/08/12 07:40:20;;;;;;;;;9.00;9.00;;;;;27.84;28.32;101223.25;5077578;27;45371;-79
2022/08/12 07:42:45;;;;;;;;;10.33;9.33;;;;;27.88;27.81;101220.00;5075248;28;47000;-80
2022/08/12 07:45:12;;;;;;;;;10.33;10.33;;;;;27.93;27.91;101223.09;5056809;28;45656;-80
2022/08/12 07:47:41;;;;;;;;;10.33;8.67;;;;;28.01;28.23;101213.19;5064159;28;45599;-80
2022/08/12 07:50:10;;;;;;;;;9.00;9.00;;;;;28.06;27.84;101216.25;5077876;28;45743;-80
2022/08/12 07:52:37;;;;;;;;;6.00;5.00;;;;;28.08;27.57;101208.72;5076779;28;46157;-79
2022/08/12 07:55:03;;;;;;;;;8.67;8.00;;;;;28.13;27.61;101215.41;5076814;28;45561;-80
2022/08/12 07:57:31;;;;;;;;;6.67;6.67;;;;;28.18;27.10;101210.25;5077205;28;45414;-80
2022/08/12 07:59:58;;;;;;;;;9.00;9.00;;;;;28.19;27.40;101200.19;5077718;28;45450;-80
2022/08/12 08:02:23;;;;;;;;;8.33;8.33;;;;;28.33;27.09;101213.19;5076934;28;45410;-80
2022/08/12 08:04:59;;;;;;;;;3.67;3.67;;;;;28.39;27.25;101219.84;5058811;28;46564;-80
2022/08/12 08:07:28;;;;;;;;;9.00;7.00;;;;;28.44;26.46;101213.84;5059026;28;45438;-80
2022/08/12 08:09:56;;;;;;;;;6.00;6.00;;;;;28.48;26.61;101207.03;5058989;28;45562;-80
2022/08/12 08:15:10;;;;;;;;;10.00;8.00;;;;;28.60;26.63;101197.41;5076986;28;45727;-80
2022/08/12 08:17:38;;;;;;;;;10.00;8.00;;;;;28.75;26.23;101214.00;5076792;28;45460;-80
2022/08/12 08:20:06;;;;;;;;;9.00;8.33;;;;;28.75;26.48;101200.28;5077244;28;45457;-80
2022/08/12 08:22:37;;;;;;;;;9.00;8.67;;;;;28.91;26.38;101216.72;5076868;28;46506;-81
2022/08/12 08:25:04;;;;;;;;;6.00;6.00;;;;;29.00;25.98;101220.28;5059264;28;45425;-80
2022/08/12 08:27:44;;;;;;;;;8.33;7.33;;;;;29.05;25.72;101212.38;5056807;28;45390;-80
2022/08/12 08:30:11;;;;;;;;;6.33;6.00;;;;;29.15;25.37;101220.44;5057217;28;45382;-80
2022/08/12 08:32:36;;;;;;;;;8.00;8.00;;;;;29.18;25.30;101207.22;5056060;28;47092;-80
2022/08/12 08:35:01;;;;;;;;;5.00;5.00;;;;;29.33;25.13;101211.97;5056457;28;45313;-81
2022/08/12 08:37:27;;;;;;;;;7.67;6.00;;;;;29.43;25.58;101207.09;5056544;28;45377;-80
2022/08/12 08:39:52;;;;;;;;;6.67;6.67;;;;;29.65;24.65;101202.69;5057190;28;45483;-80
2022/08/12 08:42:38;;;;;;;;;7.67;6.67;;;;;29.87;24.49;101203.78;5076482;27;49807;-80
2022/08/12 08:45:11;;;;;;;;;6.33;6.33;;;;;30.75;23.59;101174.81;5054970;28;45420;-81
2022/08/12 08:47:47;;;;;;;;;8.67;7.67;;;;;32.79;21.76;101192.13;5056228;28;45469;-80
2022/08/12 08:50:14;;;;;;;;;6.67;5.00;;;;;36.30;17.82;101194.09;5074679;28;45470;-80
2022/08/12 08:52:40;;;;;;;;;6.33;5.00;;;;;39.21;15.76;101204.06;5076272;28;45412;-81
2022/08/12 08:55:06;;;;;;;;;8.67;5.67;;;;;41.48;14.01;101201.16;5076449;28;45497;-81
2022/08/12 08:57:31;;;;;;;;;7.67;6.00;;;;;43.13;12.50;101210.72;5076394;28;45468;-80
2022/08/12 08:59:59;;;;;;;;;5.67;5.67;;;;;44.48;11.66;101207.06;5076647;27;45528;-80
2022/08/12 09:02:24;;;;;;;;;5.67;5.67;;;;;45.63;11.17;101208.91;5076262;27;46328;-81
2022/08/12 09:04:49;;;;;;;;;5.00;5.00;;;;;46.70;10.40;101210.00;5092894;27;45839;-81
2022/08/12 09:07:17;;;;;;;;;6.00;6.00;;;;;47.57;9.77;101203.31;5080186;27;45507;-81
2022/08/12 09:09:42;;;;;;;;;5.00;5.00;;;;;48.39;9.13;101216.13;5080331;27;45467;-81
2022/08/12 09:14:53;;;;;;;;;5.67;5.67;;;;;49.76;8.31;101218.41;5080416;28;45432;-82
2022/08/12 09:17:21;;;;;;;;;5.00;4.00;;;;;50.31;8.10;101223.00;5081045;27;45610;-81
2022/08/12 09:19:49;;;;;;;;;5.00;5.00;;;;;50.71;7.88;101225.94;5080293;27;45438;-81
2022/08/12 09:22:14;;;;;;;;;6.00;6.00;;;;;50.87;8.05;101216.63;5079605;28;45385;-82
2022/08/12 09:24:40;;;;;;;;;6.33;6.33;;;;;51.05;7.34;101205.34;5078225;28;45538;-82
2022/08/12 09:27:05;;;;;;;;;5.67;4.33;;;;;51.11;7.34;101200.34;5112667;27;45458;-82
2022/08/12 09:29:34;;;;;;;;;8.00;7.00;;;;;51.28;7.44;101215.44;5079952;27;45453;-82
2022/08/12 09:32:00;;;;;;;;;7.00;6.00;;;;;51.36;7.20;101207.25;5079138;27;46725;-82
2022/08/12 09:34:28;;;;;;;;;5.00;5.00;;;;;51.38;7.24;101214.28;5079244;27;45476;-82
2022/08/12 09:36:54;;;;;;;;;4.00;3.67;;;;;51.28;7.19;101209.75;5079549;27;45429;-82
2022/08/12 09:39:19;;;;;;;;;4.67;4.67;;;;;51.15;7.65;101195.69;5079827;27;45399;-82
2022/08/12 09:45:19;;;;;;;;;5.67;5.67;;;;;51.03;6.99;101199.16;5079003;27;46825;-82
2022/08/12 09:47:15;;;;;;;;;6.67;5.33;;;;;50.43;7.04;101197.72;5079527;28;45455;-81
2022/08/12 09:49:40;;;;;;;;;5.67;4.67;;;;;50.47;7.64;101185.41;5079374;27;45508;-82
2022/08/12 09:52:05;;;;;;;;;5.33;5.33;;;;;50.49;7.41;101187.09;5079156;28;45470;-82
2022/08/12 09:54:31;;;;;;;;;5.00;5.00;;;;;50.47;7.06;101184.56;5079414;27;45449;-82
2022/08/12 09:56:56;;;;;;;;;5.67;5.00;;;;;50.44;7.22;101190.91;5079149;27;46125;-82
2022/08/12 09:59:22;;;;;;;;;4.00;4.00;;;;;50.51;7.71;101185.59;5079539;27;45476;-83
2022/08/12 10:01:48;;;;;;;;;5.00;4.33;;;;;50.68;7.21;101188.50;5078936;27;46135;-82
2022/08/12 10:04:13;;;;;;;;;5.00;5.00;;;;;50.73;7.16;101186.69;5079214;28;45411;-82
2022/08/12 10:06:40;;;;;;;;;5.33;5.33;;;;;50.78;7.03;101186.53;5079326;28;45604;-82
2022/08/12 10:09:07;;;;;;;;;6.00;4.33;;;;;50.97;6.85;101181.41;5079311;27;45517;-82
2022/08/12 10:14:18;;;;;;;;;7.00;4.33;;;;;51.63;6.83;101175.69;5078898;28;45655;-82
2022/08/12 10:16:44;;;;;;;;;5.33;5.33;;;;;51.75;6.16;101165.66;5076478;28;45480;-82
2022/08/12 10:19:10;;;;;;;;;4.67;4.00;;;;;52.08;6.35;101146.06;5078948;27;45357;-83
2022/08/12 10:21:37;;;;;;;;;3.67;3.67;;;;;52.82;6.00;101167.53;5078931;28;46316;-83
2022/08/12 10:24:03;;;;;;;;;3.33;3.33;;;;;53.24;5.61;101169.63;5074075;28;45588;-83
2022/08/12 10:31:59;;;;;;;;;4.33;4.33;;;;;54.22;5.07;101149.28;5057993;28;45780;-83
2022/08/12 10:34:25;;;;;;;;;3.33;3.00;;;;;54.53;4.76;101165.84;5058102;28;45492;-83
2022/08/12 10:36:57;;;;;;;;;4.67;4.67;;;;;54.75;4.80;101153.97;5058507;28;45374;-83
2022/08/12 10:39:23;;;;;;;;;4.00;4.00;;;;;54.88;4.78;101159.66;5058702;28;45488;-83
2022/08/12 10:44:34;;;;;;;;;3.67;3.67;;;;;54.68;5.20;101158.56;5075143;28;45603;-82
2022/08/12 10:46:59;;;;;;;;;4.67;4.67;;;;;54.44;5.25;101154.53;5078415;28;45437;-82
2022/08/12 10:49:26;;;;;;;;;3.33;3.33;;;;;54.29;4.91;101150.34;5078760;28;45728;-80
2022/08/12 10:51:53;;;;;;;;;5.00;5.00;;;;;54.26;5.03;101162.47;5076882;28;46099;-81
2022/08/12 10:54:19;;;;;;;;;4.00;4.00;;;;;54.02;5.31;101163.22;5078447;27;45561;-81
2022/08/12 10:56:47;;;;;;;;;5.33;4.00;;;;;54.01;5.29;101152.19;5078167;28;45465;-81
2022/08/12 10:59:14;;;;;;;;;4.00;4.00;;;;;53.86;5.30;101150.81;5078472;27;45377;-81
2022/08/12 11:01:41;;;;;;;;;5.00;5.00;;;;;53.36;5.86;101142.00;5078104;27;45433;-81
2022/08/12 11:04:08;;;;;;;;;4.33;4.33;;;;;52.94;5.75;101115.50;5078207;27;45510;-81
2022/08/12 11:06:33;;;;;;;;;4.33;3.33;;;;;52.86;5.95;101124.97;5078067;27;45435;-81
2022/08/12 11:08:59;;;;;;;;;6.33;5.33;;;;;52.29;5.95;101121.38;5078419;28;45431;-82
2022/08/12 11:11:26;;;;;;;;;4.33;3.33;;;;;51.79;6.59;101118.31;5077780;27;46997;-82
2022/08/12 11:13:52;;;;;;;;;4.00;4.00;;;;;51.50;6.12;101080.91;5077630;27;45572;-81
2022/08/12 11:16:18;;;;;;;;;6.67;4.00;;;;;51.11;6.54;101101.78;5078168;27;45506;-81
2022/08/12 11:18:44;;;;;;;;;6.00;5.00;;;;;50.48;6.68;101089.75;5078388;28;45578;-81
2022/08/12 11:21:09;;;;;;;;;3.00;3.00;;;;;50.30;6.69;101088.84;5077845;28;46203;-81
2022/08/12 11:23:34;;;;;;;;;4.00;4.00;;;;;49.80;7.44;101080.53;5078221;28;45700;-81
2022/08/12 11:26:00;;;;;;;;;5.00;5.00;;;;;49.66;7.06;101086.28;5077672;28;45409;-82
2022/08/12 11:28:26;;;;;;;;;9.33;6.67;;;;;49.39;7.05;101073.91;5078053;27;45580;-84
2022/08/12 11:30:51;;;;;;;;;4.33;4.33;;;;;49.15;7.76;101079.00;5077623;27;46217;-82
2022/08/12 11:33:16;;;;;;;;;4.67;4.67;;;;;48.85;7.81;101077.72;5077745;27;45444;-82
2022/08/12 11:35:42;;;;;;;;;3.67;3.67;;;;;48.19;7.90;101067.44;5077848;27;45715;-82
2022/08/12 11:38:10;;;;;;;;;4.67;4.67;;;;;47.54;7.68;101067.50;5077963;27;45504;-82
2022/08/12 11:40:36;;;;;;;;;5.00;5.00;;;;;46.79;8.53;101062.66;5077064;27;45494;-83
2022/08/12 11:43:02;;;;;;;;;4.33;4.33;;;;;46.28;8.43;101053.63;5076042;28;45383;-82
2022/08/12 11:45:29;;;;;;;;;3.67;3.67;;;;;46.11;8.35;101070.19;5076338;28;45385;-82
2022/08/12 11:47:56;;;;;;;;;4.00;4.00;;;;;45.80;8.83;101056.41;5077904;28;45501;-82
2022/08/12 11:50:22;;;;;;;;;3.33;3.33;;;;;45.38;9.06;101052.22;5077281;28;45519;-82
2022/08/12 11:52:49;;;;;;;;;4.67;4.67;;;;;45.19;9.30;101052.06;5077238;28;45321;-82
2022/08/12 11:55:15;;;;;;;;;6.00;5.00;;;;;44.72;9.18;101052.59;5077386;28;45460;-82
2022/08/12 11:57:54;;;;;;;;;3.00;3.00;;;;;44.16;9.77;101053.59;5077742;28;45489;-83
2022/08/12 12:00:20;;;;;;;;;3.00;3.00;;;;;43.94;9.55;101049.13;5077599;27;45425;-82
2022/08/12 12:02:46;;;;;;;;;4.00;3.67;;;;;43.71;9.83;101041.28;5078746;28;45480;-82
2022/08/12 12:05:14;;;;;;;;;4.67;4.67;;;;;43.42;10.24;101037.06;5079538;28;45427;-82
2022/08/12 12:07:41;;;;;;;;;5.00;5.00;;;;;43.22;10.10;101039.84;5078782;28;45463;-82
2022/08/12 12:10:07;;;;;;;;;3.00;3.00;;;;;42.94;10.38;101041.16;5077002;28;46034;-82
2022/08/12 12:12:32;;;;;;;;;4.33;4.33;;;;;42.67;10.35;101042.19;5077313;28;46127;-82
2022/08/12 12:14:58;;;;;;;;;3.00;3.00;;;;;42.42;10.53;101045.72;5077309;27;45468;-82
2022/08/12 12:17:24;;;;;;;;;3.33;3.33;;;;;42.16;10.52;101034.34;5077454;27;45459;-81
2022/08/12 12:19:51;;;;;;;;;5.00;5.00;;;;;41.90;10.80;101035.28;5076977;28;46426;-80
2022/08/12 12:22:17;;;;;;;;;3.00;3.00;;;;;41.69;11.06;101026.72;5077192;28;45501;-82
2022/08/12 12:24:45;;;;;;;;;3.33;3.33;;;;;41.47;11.29;101020.38;5075374;28;45442;-81
2022/08/12 12:27:10;;;;;;;;;4.00;4.00;;;;;41.26;11.23;101028.59;5077185;28;45475;-81
2022/08/12 12:29:36;;;;;;;;;4.00;4.00;;;;;40.99;11.18;101020.16;5076838;27;47294;-82
2022/08/12 12:32:02;;;;;;;;;4.00;2.67;;;;;40.86;11.57;101018.63;5076961;27;45365;-81
2022/08/12 12:34:27;;;;;;;;;4.67;4.67;;;;;40.77;11.05;101016.56;5077008;28;45353;-82
2022/08/12 12:36:52;;;;;;;;;3.33;3.00;;;;;40.74;11.77;101017.91;5076013;28;45350;-81
2022/08/12 12:39:18;;;;;;;;;6.00;4.33;;;;;40.62;10.76;101026.41;5075850;27;45404;-81
2022/08/12 12:41:43;;;;;;;;;4.00;4.00;;;;;40.55;11.84;101017.38;5076483;28;45401;-81
2022/08/12 12:44:08;;;;;;;;;3.33;3.00;;;;;40.36;11.02;100982.50;5076732;28;45511;-82
2022/08/12 12:46:33;;;;;;;;;3.00;3.00;;;;;40.29;11.46;101011.47;5076919;27;45430;-81
2022/08/12 12:48:59;;;;;;;;;6.33;5.00;;;;;40.18;11.41;101015.22;5075501;28;45489;-81
2022/08/12 12:51:24;;;;;;;;;3.67;3.67;;;;;40.16;11.46;101009.03;5075039;28;49090;-80
2022/08/12 12:53:50;;;;;;;;;5.00;5.00;;;;;40.04;11.39;100999.91;5075022;28;45466;-81
2022/08/12 12:56:20;;;;;;;;;5.67;5.67;;;;;39.87;11.97;101008.31;5075542;28;45484;-81
2022/08/12 12:58:50;;;;;;;;;6.00;5.00;;;;;39.73;11.69;100999.41;5076433;27;46279;-81
2022/08/12 13:01:18;;;;;;;;;5.00;3.00;;;;;39.66;12.31;100999.63;5076273;27;45549;-81
2022/08/12 13:03:44;;;;;;;;;4.33;4.33;;;;;39.56;12.45;100979.06;5076493;27;45431;-81
2022/08/12 13:06:11;;;;;;;;;4.00;4.00;;;;;39.50;12.29;100985.66;5075401;28;45482;-81
2022/08/12 13:08:36;;;;;;;;;3.00;3.00;;;;;39.44;12.90;100982.78;5074601;28;46618;-81
2022/08/12 13:11:04;;;;;;;;;4.67;4.67;;;;;39.32;12.62;100987.56;5076167;28;45368;-81
2022/08/12 13:13:32;;;;;;;;;2.67;2.67;;;;;39.23;12.23;100986.31;5076540;27;45443;-81